Zufallsbild

Aktuelle Termine

Mo Di Mi Do Fr Sa So
27 28 29 30 1 2 3
4 5 6 7 8 9 10
11 12 13 14 15 16 17
18 19 20 21 22 23 24
25 26 27 28 29 30 31

Pilotenwetter

[source: ADDS]
METAR
EDDH 122120Z 23009KT 9999 SCT007 01/01 Q1009 TEMPO BKN006 =
TAF
TAF EDDH 121700Z 1218/1324 25008KT 9999 SCT005 BKN025 TEMPO 1218/1302 3500 BR BKN004 TEMPO 1302/1305 3500 BR BKN007 BECMG 1309/1311 18012KT TEMPO 1309/1314 20015G25KT BECMG 1310/1313 OVC005 TEMPO 1313/1317 3000 -RASN OVC003 TEMPO 1322/1324 BKN010 =